Latest Weather Observations for Yanakie

IDV60801

Issued at 11:35 pm EDT Monday 20 October 2014 (issued every 30 minutes, with the page automatically refreshed every 10 minutes)

About weather observations | Map of weather stations | Latest weather observations for VIC | Other Formats
Station Details ID: 085301 Name: YANAKIE Lat: -38.81 Lon: 146.19 Height: 13.3 m
Data from the previous 72 hours. | See also: Recent months at Yanakie
Date/Time
EDT
Temp
°C
App
Temp
°C
Dew
Point
Rel
Hum
%
Delta-T
°C
Wind Press
QNH
hPa
Press
MSL
hPa
Rain
since 9 am
mm
Dir
 
Spd
km/h
Gust
km/h
Spd
kts
Gust
kts
20/11:30pm 12.5 5.8 7.2 70 2.5 ENE 32 44 17 24 1031.0 1031.0 0.0
20/11:01pm 12.5 6.2 7.2 70 2.5 ENE 30 50 16 27 1031.2 1031.2 0.0
20/11:00pm 12.5 5.7 7.0 69 2.6 ENE 32 50 17 27 1031.1 1031.1 0.0
20/10:38pm 12.6 5.9 7.3 70 2.6 ENE 32 50 17 27 1031.2 1031.2 0.0
20/10:30pm 12.7 5.4 7.2 69 2.7 ENE 35 48 19 26 1031.3 1031.3 0.0
20/10:17pm 12.6 5.8 6.9 68 2.7 ENE 32 50 17 27 1031.2 1031.2 0.0
20/10:00pm 12.8 6.5 7.5 70 2.6 ENE 30 43 16 23 1031.4 1031.4 0.0
20/09:30pm 12.9 6.2 7.4 69 2.7 ENE 32 46 17 25 1031.2 1031.2 0.0
20/09:00pm 13.0 6.7 7.2 68 2.8 E 30 43 16 23 1031.0 1031.0 0.0
20/08:34pm 13.0 6.2 7.0 67 2.9 ENE 32 50 17 27 1030.7 1030.7 0.0
20/08:30pm 13.0 6.7 7.5 69 2.7 E 30 46 16 25 1030.7 1030.7 0.0
20/08:16pm 13.0 7.0 7.2 68 2.8 E 28 46 15 25 1030.6 1030.6 0.0
20/08:00pm 12.9 6.5 6.9 67 2.9 E 30 44 16 24 1030.5 1030.5 0.0
20/07:30pm 13.0 7.4 7.0 67 2.9 E 26 43 14 23 1030.5 1030.5 0.0
20/07:00pm 13.1 7.9 7.3 68 2.8 E 24 43 13 23 1030.6 1030.6 0.0
20/06:30pm 13.3 7.7 7.3 67 2.9 E 26 37 14 20 1030.6 1030.6 0.0
20/06:00pm 14.2 8.3 7.7 65 3.2 E 28 43 15 23 1030.4 1030.4 0.0
20/05:30pm 14.3 8.8 7.6 64 3.3 E 26 44 14 24 1030.4 1030.4 0.0
20/05:04pm 14.3 8.5 7.8 65 3.2 E 28 48 15 26 1030.3 1030.3 0.0
20/05:00pm 14.5 9.1 8.0 65 3.2 E 26 48 14 26 1030.4 1030.4 0.0
20/04:58pm 14.3 8.5 7.8 65 3.2 E 28 48 15 26 1030.3 1030.3 0.0
20/04:30pm 14.7 8.5 8.0 64 3.3 E 30 44 16 24 1030.2 1030.2 0.0
20/04:00pm 14.9 9.2 8.2 64 3.3 E 28 43 15 23 1030.2 1030.2 0.0
20/03:30pm 15.1 9.9 8.8 66 3.2 E 26 43 14 23 1030.5 1030.5 0.0
20/03:00pm 14.7 8.5 8.0 64 3.3 E 30 46 16 25 1030.7 1030.7 0.0
20/02:30pm 15.4 10.6 8.9 65 3.3 E 24 41 13 22 1030.8 1030.8 0.0
20/02:00pm 14.9 10.0 8.4 65 3.2 E 24 39 13 21 1031.1 1031.1 0.0
20/01:30pm 15.2 10.4 8.7 65 3.3 E 24 41 13 22 1031.3 1031.3 0.0
20/01:00pm 14.4 9.3 7.5 63 3.4 E 24 44 13 24 1031.4 1031.4 0.0
20/12:30pm 14.9 10.0 8.4 65 3.3 E 24 37 13 20 1031.7 1031.7 0.0
20/12:00pm 14.1 8.7 8.1 67 3.0 E 26 39 14 21 1031.7 1031.7 0.0
20/11:30am 13.9 9.6 7.7 66 3.1 E 20 33 11 18 1032.0 1032.0 0.0
20/11:00am 14.9 10.8 8.8 67 3.1 E 20 30 11 16 1032.2 1032.2 0.0
20/10:30am 14.3 9.7 6.6 60 3.7 E 20 32 11 17 1032.2 1032.2 0.0
20/10:00am 13.8 9.5 6.9 63 3.3 E 19 28 10 15 1032.2 1032.2 0.0
20/09:30am 12.4 7.7 6.0 65 3.0 ESE 20 28 11 15 1032.0 1032.0 0.0
20/09:00am 13.1 9.9 6.7 65 3.0 ESE 13 19 7 10 1031.7 1031.7 0.0
20/08:30am 12.4 10.4 7.1 70 2.6 SE 7 11 4 6 1031.5 1031.5 0.0
20/08:00am 10.8 9.0 7.1 78 1.7 SSE 6 9 3 5 1031.5 1031.5 0.0
20/07:30am 7.8 6.1 5.9 88 0.9 SSE 4 6 2 3 1031.3 1031.3 0.0
20/07:00am 5.0 3.4 2.5 84 1.0 CALM 0 0 0 0 1030.9 1030.9 0.0
20/06:30am 5.5 3.1 2.3 80 1.3 ESE 4 6 2 3 1030.7 1030.7 0.0
20/06:00am 7.5 4.9 4.1 79 1.5 ESE 7 9 4 5 1030.2 1030.2 0.0
20/05:30am 5.9 3.1 3.1 82 1.2 E 7 9 4 5 1030.3 1030.3 0.0
20/05:00am 6.2 3.9 2.7 78 1.4 S 4 6 2 3 1030.2 1030.2 0.0
20/04:30am 7.2 4.6 3.1 75 1.7 SSE 6 9 3 5 1029.8 1029.8 0.0
20/04:00am 7.9 5.1 3.4 73 1.9 S 7 11 4 6 1029.6 1029.6 0.0
20/03:30am 9.0 6.0 4.2 72 2.1 S 9 15 5 8 1029.7 1029.7 0.0
20/03:00am 9.3 5.6 4.7 73 2.0 S 13 19 7 10 1030.0 1030.0 0.0
20/02:30am 9.9 5.6 5.3 73 2.1 S 17 26 9 14 1029.5 1029.5 0.0
20/02:00am 10.0 6.3 6.2 77 1.7 SSW 15 24 8 13 1029.6 1029.6 0.0
20/01:30am 10.3 6.7 6.6 78 1.7 SSW 15 22 8 12 1029.5 1029.5 0.0
20/01:00am 10.7 6.2 6.8 77 1.8 SSW 20 28 11 15 1029.2 1029.2 0.0
20/12:30am 11.0 6.7 7.7 80 1.6 SSW 20 30 11 16 1028.9 1028.9 0.0
20/12:00am 11.5 6.2 8.5 82 1.5 SSW 26 35 14 19 1028.7 1028.7 0.0
 
Date/Time
EDT
Temp
°C
App
Temp
°C
Dew
Point
Rel
Hum
%
Delta-T
°C
Wind Press
QNH
hPa
Press
MSL
hPa
Rain
since 9 am
mm
Dir
 
Spd
km/h
Gust
km/h
Spd
kts
Gust
kts
19/11:30pm 12.0 6.3 8.3 78 1.8 SW 28 35 15 19 1028.4 1028.4 0.0
19/11:00pm 11.9 5.7 7.8 76 2.0 SSW 30 39 16 21 1028.2 1028.2 0.0
19/10:30pm 12.1 6.5 8.8 80 1.6 SW 28 37 15 20 1028.1 1028.1 0.0
19/10:00pm 12.1 6.6 9.1 82 1.5 SW 28 37 15 20 1027.6 1027.6 0.0
19/09:30pm 12.5 7.2 9.9 84 1.3 SW 28 37 15 20 1026.7 1026.7 0.0
19/09:00pm 12.4 7.5 9.8 84 1.3 SSW 26 41 14 22 1025.6 1025.6 0.0
19/08:30pm 12.9 7.1 10.8 87 1.1 SSW 32 43 17 23 1024.7 1024.7 0.0
19/08:00pm 13.5 10.1 11.4 87 1.1 WSW 20 30 11 16 1024.2 1024.2 0.0
19/07:30pm 13.4 8.8 11.1 86 1.2 SW 26 35 14 19 1023.6 1023.6 0.0
19/07:00pm 14.2 9.1 11.9 86 1.2 SW 30 41 16 22 1022.9 1022.9 0.0
19/06:30pm 14.2 9.5 11.9 86 1.2 SW 28 33 15 18 1022.3 1022.3 0.0
19/06:00pm 14.8 10.6 12.3 85 1.4 SW 26 32 14 17 1021.6 1021.6 0.0
19/05:30pm 15.5 11.3 12.4 82 1.7 SW 26 33 14 18 1021.0 1021.0 0.0
19/05:00pm 16.0 10.8 12.9 82 1.7 SW 32 41 17 22 1020.3 1020.3 0.0
19/04:30pm 16.5 12.9 13.2 81 1.8 SSW 24 30 13 16 1019.4 1019.4 0.0
19/04:00pm 16.3 11.4 13.6 84 1.5 SSW 32 39 17 21 1019.3 1019.3 0.0
19/03:30pm 16.7 11.8 13.8 83 1.6 SW 32 41 17 22 1019.0 1019.0 0.0
19/03:00pm 17.4 12.3 13.7 79 2.1 SW 33 41 18 22 1018.8 1018.8 0.0
19/02:30pm 18.2 14.6 14.1 77 2.4 SSW 26 35 14 19 1018.5 1018.5 0.0
19/02:00pm 18.6 15.7 14.1 75 2.6 SSW 22 30 12 16 1018.5 1018.5 0.0
19/01:30pm 19.1 15.8 13.9 72 3.0 SSW 24 33 13 18 1018.6 1018.6 0.0
19/01:14pm 20.4 15.7 13.1 63 4.2 SSW 30 37 16 20 1018.5 1018.5 0.0
19/01:00pm 25.9 20.3 10.1 37 8.8 NW 30 44 16 24 1017.9 1017.9 0.0
19/12:30pm 24.7 17.4 8.6 36 8.6 NW 37 52 20 28 1018.0 1018.0 0.0
19/12:12pm 25.1 17.9 7.7 33 9.2 NW 35 54 19 29 1018.0 1018.0 0.0
19/12:00pm 24.7 19.3 9.4 38 8.3 NW 28 41 15 22 1018.3 1018.3 0.0
19/11:30am 23.6 19.4 9.9 42 7.5 NW 22 35 12 19 1018.5 1018.5 0.0
19/11:00am 22.1 21.6 12.6 55 5.4 WSW 7 13 4 7 1019.1 1019.1 0.0
19/10:30am 20.2 19.7 13.9 67 3.6 SSW 9 11 5 6 1019.4 1019.4 0.0
19/10:00am 20.0 19.2 13.9 68 3.5 SSW 11 17 6 9 1019.7 1019.7 0.0
19/09:30am 17.7 16.4 12.6 72 2.8 SSW 11 15 6 8 1019.9 1019.9 0.0
19/09:00am 19.5 18.2 12.5 64 3.9 SW 11 15 6 8 1020.0 1020.0 0.0
19/08:30am 17.5 16.3 11.5 68 3.3 S 9 15 5 8 1019.9 1019.9 0.0
19/08:00am 17.5 15.3 9.4 59 4.2 SW 11 17 6 9 1019.6 1019.6 0.0
19/07:30am 16.3 14.5 9.3 63 3.6 S 9 15 5 8 1019.1 1019.1 0.0
19/07:00am 18.3 14.4 7.1 48 5.6 NW 17 26 9 14 1018.5 1018.5 0.0
19/06:30am 18.4 14.5 6.9 47 5.8 NNW 17 24 9 13 1018.1 1018.1 0.0
19/06:00am 18.7 14.1 6.5 45 6.1 NNW 20 30 11 16 1017.9 1017.9 0.0
19/05:30am 18.0 14.1 7.1 49 5.5 NNW 17 24 9 13 1018.0 1018.0 0.0
19/05:00am 16.9 13.8 7.3 53 4.8 N 13 19 7 10 1018.0 1018.0 0.0
19/04:30am 16.2 14.2 6.9 54 4.6 N 7 11 4 6 1018.3 1018.3 0.0
19/04:00am 16.6 14.6 7.3 54 4.6 NNE 7 11 4 6 1018.4 1018.4 0.0
19/03:30am 16.8 14.1 7.4 54 4.7 NE 11 15 6 8 1018.6 1018.6 0.0
19/03:00am 17.7 14.8 8.3 54 4.8 NNE 13 19 7 10 1018.9 1018.9 0.0
19/02:30am 15.6 14.5 11.8 78 2.1 NNE 9 19 5 10 1019.1 1019.1 0.0
19/02:00am 14.6 13.0 11.7 83 1.6 ENE 11 15 6 8 1019.5 1019.5 0.0
19/01:30am 15.2 14.0 12.7 85 1.4 NE 11 15 6 8 1019.6 1019.6 0.0
19/01:00am 15.4 13.7 13.6 89 1.0 ENE 15 20 8 11 1020.1 1020.1 0.0
19/12:30am 15.0 14.0 13.5 91 0.8 ENE 11 19 6 10 1021.0 1021.0 0.0
19/12:00am 14.0 12.3 12.4 90 0.9 E 13 19 7 10 1021.4 1021.4 0.0
 
Date/Time
EDT
Temp
°C
App
Temp
°C
Dew
Point
Rel
Hum
%
Delta-T
°C
Wind Press
QNH
hPa
Press
MSL
hPa
Rain
since 9 am
mm
Dir
 
Spd
km/h
Gust
km/h
Spd
kts
Gust
kts
18/11:30pm 14.0 11.8 12.2 89 1.0 ENE 15 20 8 11 1021.9 1021.9 0.0
18/11:00pm 14.4 12.7 12.4 88 1.1 ENE 13 19 7 10 1022.5 1022.5 0.0
18/10:30pm 14.1 11.8 11.8 86 1.2 ENE 15 19 8 10 1022.8 1022.8 0.0
18/10:00pm 14.2 12.3 11.7 85 1.3 ENE 13 19 7 10 1023.4 1023.4 0.0
18/09:30pm 14.4 12.1 11.9 85 1.3 ENE 15 19 8 10 1023.6 1023.6 0.0
18/09:00pm 14.5 12.3 12.2 86 1.2 ENE 15 20 8 11 1023.4 1023.4 0.0
18/08:30pm 14.7 12.9 12.0 84 1.5 ENE 13 17 7 9 1023.3 1023.3 0.0
18/08:00pm 14.5 12.8 11.3 81 1.7 E 11 17 6 9 1023.1 1023.1 0.0
18/07:30pm 15.2 13.9 11.4 78 2.0 E 9 15 5 8 1023.1 1023.1 0.0
18/07:00pm 15.9 15.1 11.7 76 2.3 ESE 7 11 4 6 1023.0 1023.0 0.0
18/06:30pm 16.3 16.1 11.9 75 2.4 SSE 4 7 2 4 1023.2 1023.2 0.0
18/06:00pm 17.2 16.6 12.3 73 2.7 ESE 7 13 4 7 1022.9 1022.9 0.0
18/05:30pm 16.9 14.9 11.6 71 2.9 E 13 20 7 11 1021.8 1021.8 0.0
18/05:00pm 17.1 15.4 12.4 74 2.6 E 13 19 7 10 1021.6 1021.6 0.0
18/04:30pm 18.3 17.1 12.7 70 3.1 ENE 11 17 6 9 1022.1 1022.1 0.0
18/04:00pm 19.7 18.8 12.7 64 3.9 ENE 9 13 5 7 1022.8 1022.8 0.0
18/03:30pm 20.9 20.3 12.3 58 4.8 ENE 7 11 4 6 1022.8 1022.8 0.0
18/03:00pm 21.1 19.6 12.0 56 5.1 N 11 17 6 9 1023.1 1023.1 0.0
18/02:30pm 21.5 20.4 12.1 55 5.3 NE 9 13 5 7 1023.4 1023.4 0.0
18/02:00pm 21.3 20.8 10.8 51 5.7 N 4 9 2 5 1023.7 1023.7 0.0
18/01:30pm 19.4 18.8 12.4 64 3.9 ENE 7 11 4 6 1024.3 1024.3 0.0
18/01:00pm 18.2 17.0 11.7 66 3.5 ENE 9 15 5 8 1024.3 1024.3 0.0
18/12:30pm 17.9 16.4 11.9 68 3.3 ENE 11 17 6 9 1024.8 1024.8 0.0
18/12:00pm 17.4 15.6 12.1 71 2.9 ENE 13 17 7 9 1025.5 1025.5 0.0
18/11:30am 16.8 14.8 11.5 71 2.9 ENE 13 17 7 9 1025.9 1025.9 0.0
18/11:00am 16.3 14.7 11.7 74 2.5 ENE 11 17 6 9 1026.3 1026.3 0.0
18/10:30am 15.4 12.8 10.8 74 2.4 ENE 15 20 8 11 1026.6 1026.6 0.0
18/10:00am 15.2 13.0 10.8 75 2.3 ENE 13 19 7 10 1026.7 1026.7 0.0
18/09:30am 14.2 11.1 10.4 78 2.0 ENE 17 24 9 13 1026.8 1026.8 0.0
18/09:00am 13.7 10.9 10.1 79 1.9 ENE 15 24 8 13 1026.9 1026.9 0.0
18/08:30am 13.4 10.2 10.0 80 1.8 ENE 17 26 9 14 1026.7 1026.7 0.0
18/08:00am 12.9 9.6 9.7 81 1.6 ENE 17 26 9 14 1026.6 1026.6 0.0
18/07:30am 12.3 9.4 9.5 83 1.4 ENE 15 22 8 12 1026.6 1026.6 0.0
18/07:00am 11.5 8.4 8.9 84 1.3 ENE 15 20 8 11 1026.3 1026.3 0.0
18/06:30am 10.9 8.1 8.5 85 1.2 ENE 13 19 7 10 1026.0 1026.0 0.0
18/06:00am 10.7 7.5 8.3 85 1.2 ENE 15 22 8 12 1025.5 1025.5 0.0
18/05:30am 10.5 8.4 8.3 86 1.1 ENE 9 19 5 10 1025.2 1025.2 0.0
18/05:00am 11.0 7.4 8.4 84 1.3 ENE 17 26 9 14 1025.2 1025.2 0.0
18/04:30am 11.0 7.4 8.4 84 1.3 ENE 17 24 9 13 1025.4 1025.4 0.0
18/04:00am 11.0 7.4 8.4 84 1.3 ENE 17 26 9 14 1025.5 1025.5 0.0
18/03:30am 10.9 7.7 8.3 84 1.3 ENE 15 22 8 12 1025.7 1025.7 0.0
18/03:00am 11.0 7.7 8.2 83 1.4 ENE 15 22 8 12 1025.6 1025.6 0.0
18/02:30am 11.3 7.3 8.3 82 1.5 ENE 19 28 10 15 1025.6 1025.6 0.0
18/02:00am 11.4 7.8 8.3 81 1.5 ENE 17 24 9 13 1026.1 1026.1 0.0
18/01:30am 11.4 7.8 8.4 82 1.5 ENE 17 28 9 15 1026.4 1026.4 0.0
18/01:00am 11.3 8.1 8.3 82 1.5 ENE 15 22 8 12 1026.8 1026.8 0.0
18/12:30am 11.6 7.7 8.6 82 1.5 NE 19 30 10 16 1026.7 1026.7 0.0
18/12:00am 11.5 8.0 8.9 84 1.3 ENE 17 24 9 13 1026.9 1026.9 0.0

Other Formats:

Comma delimited format used in spreadsheet applications
http://www.bom.gov.au/fwo/IDV60801/IDV60801.94911.axf

JavaScript Object Notation format (JSON) in row-major order
http://www.bom.gov.au/fwo/IDV60801/IDV60801.94911.json